map of KADC home
Great Circle Mapper logo
KADC - Airport
Location
City:  Wadena, Minnesota, United States
Name:Wadena Municipal Airport
ICAO:KADC
FAA:ADC

Details
Type:Airport (Airfield)
Use:Public/Civil
Latitude:4627'00"N (46.449945)
Longitude:9512'39"W (-95.210831)
Datum:WGS 1984
Elevation:1368 ft (417 m)
Runways:1
Longest:4007 × 75 ft (1221 × 23 m), paved

Time
Time Zone:UTC-6 (DST-5)
Local Time:

Weather
METAR:KADC 222335Z AUTO 15011G15KT 10SM OVC046 15/07 A2991 RMK AO2

Related Locations
Nearby:
Farthest:YWKS: 10728 mi / 17265 km
Wilkins Runway (Casey), Upper Peterson Glacier, AQ

Find:

   beyond  
but within

Other Information
Maps:
NOTAMs:
Links:
Sources:

  
flag of United States
flag of Minnesota
  

Sectional Chart

Flight Planning
at skyvector.com

Satellite Image

Google Maps Satellite View

 

Copyright © 2004-2014 Karl L. Swartz. All rights reserved.
The Great Circle Mapper name and logo are trademarks of the Great Circle Mapper.
All other trademarks mentioned herein belong to their respective owners.
Please see credits for attibutions and further copyright information.

  Follow gcmap on Facebook Follow gcmap on Twitter

hCard Microformat

Geo Microformat